sensor_id;sensor_type;location;lat;lon;timestamp;pressure;altitude;pressure_sealevel;temperature
76901;BMP280;65859;43.020;25.096;2022-12-11T00:01:53;97193.72;;;16.25
76901;BMP280;65859;43.020;25.096;2022-12-11T00:04:19;97206.47;;;16.37
76901;BMP280;65859;43.020;25.096;2022-12-11T00:06:46;97168.81;;;16.28
76901;BMP280;65859;43.020;25.096;2022-12-11T00:09:16;97144.19;;;16.16
76901;BMP280;65859;43.020;25.096;2022-12-11T00:11:43;97136.47;;;16.18
76901;BMP280;65859;43.020;25.096;2022-12-11T00:14:10;97092.72;;;16.45
76901;BMP280;65859;43.020;25.096;2022-12-11T00:16:36;97104.38;;;16.55
76901;BMP280;65859;43.020;25.096;2022-12-11T00:19:02;97115.09;;;16.55
76901;BMP280;65859;43.020;25.096;2022-12-11T00:21:29;97116.59;;;16.56
76901;BMP280;65859;43.020;25.096;2022-12-11T00:23:55;97140.03;;;16.52
76901;BMP280;65859;43.020;25.096;2022-12-11T00:26:22;97146.00;;;16.59
76901;BMP280;65859;43.020;25.096;2022-12-11T00:28:52;97070.28;;;16.59
76901;BMP280;65859;43.020;25.096;2022-12-11T00:31:20;97068.69;;;16.61
76901;BMP280;65859;43.020;25.096;2022-12-11T00:33:48;97057.44;;;16.66
76901;BMP280;65859;43.020;25.096;2022-12-11T00:36:25;97033.03;;;16.48
76901;BMP280;65859;43.020;25.096;2022-12-11T00:38:52;97084.31;;;16.63
76901;BMP280;65859;43.020;25.096;2022-12-11T00:41:20;97088.03;;;16.69
76901;BMP280;65859;43.020;25.096;2022-12-11T00:43:46;97028.88;;;16.80
76901;BMP280;65859;43.020;25.096;2022-12-11T00:46:13;97036.50;;;16.94
76901;BMP280;65859;43.020;25.096;2022-12-11T00:48:40;97069.19;;;16.89
76901;BMP280;65859;43.020;25.096;2022-12-11T01:15:56;96972.44;;;17.16
76901;BMP280;65859;43.020;25.096;2022-12-11T01:18:24;96990.66;;;16.92
76901;BMP280;65859;43.020;25.096;2022-12-11T01:20:51;96985.16;;;17.12
76901;BMP280;65859;43.020;25.096;2022-12-11T01:23:17;96981.66;;;17.15
76901;BMP280;65859;43.020;25.096;2022-12-11T01:25:44;96968.72;;;17.26
76901;BMP280;65859;43.020;25.096;2022-12-11T01:28:10;96988.00;;;17.21
76901;BMP280;65859;43.020;25.096;2022-12-11T01:30:37;96984.28;;;17.31
76901;BMP280;65859;43.020;25.096;2022-12-11T01:33:05;96995.94;;;17.24
76901;BMP280;65859;43.020;25.096;2022-12-11T01:35:32;97016.28;;;17.51
76901;BMP280;65859;43.020;25.096;2022-12-11T01:37:59;97011.47;;;17.58
76901;BMP280;65859;43.020;25.096;2022-12-11T01:40:25;97002.28;;;17.30
76901;BMP280;65859;43.020;25.096;2022-12-11T01:42:51;96991.06;;;17.35
76901;BMP280;65859;43.020;25.096;2022-12-11T01:47:48;97010.47;;;17.52
76901;BMP280;65859;43.020;25.096;2022-12-11T01:50:16;96989.25;;;17.58
76901;BMP280;65859;43.020;25.096;2022-12-11T01:52:45;96976.78;;;17.38
76901;BMP280;65859;43.020;25.096;2022-12-11T01:55:12;96966.47;;;17.37
76901;BMP280;65859;43.020;25.096;2022-12-11T01:57:41;96987.81;;;17.12
76901;BMP280;65859;43.020;25.096;2022-12-11T02:00:09;96984.59;;;17.04
76901;BMP280;65859;43.020;25.096;2022-12-11T02:02:35;96986.69;;;17.13
76901;BMP280;65859;43.020;25.096;2022-12-11T02:05:03;97008.22;;;17.09
76901;BMP280;65859;43.020;25.096;2022-12-11T02:07:45;96974.25;;;17.19
76901;BMP280;65859;43.020;25.096;2022-12-11T02:10:12;96975.97;;;16.96
76901;BMP280;65859;43.020;25.096;2022-12-11T02:12:59;96954.06;;;17.01
76901;BMP280;65859;43.020;25.096;2022-12-11T02:15:53;96961.19;;;16.92
76901;BMP280;65859;43.020;25.096;2022-12-11T02:18:45;96955.75;;;16.95
76901;BMP280;65859;43.020;25.096;2022-12-11T02:21:45;96923.81;;;17.01
76901;BMP280;65859;43.020;25.096;2022-12-11T02:26:59;96896.66;;;17.15
76901;BMP280;65859;43.020;25.096;2022-12-11T02:29:57;96903.44;;;17.20
76901;BMP280;65859;43.020;25.096;2022-12-11T02:32:34;96898.16;;;17.16
76901;BMP280;65859;43.020;25.096;2022-12-11T02:35:13;96906.28;;;17.13
76901;BMP280;65859;43.020;25.096;2022-12-11T02:37:42;96878.03;;;17.24
76901;BMP280;65859;43.020;25.096;2022-12-11T02:40:12;96880.47;;;17.19
76901;BMP280;65859;43.020;25.096;2022-12-11T02:42:42;96900.66;;;17.36
76901;BMP280;65859;43.020;25.096;2022-12-11T02:45:10;96919.63;;;17.29
76901;BMP280;65859;43.020;25.096;2022-12-11T02:47:37;96909.72;;;17.13
76901;BMP280;65859;43.020;25.096;2022-12-11T02:50:08;96918.13;;;17.28
76901;BMP280;65859;43.020;25.096;2022-12-11T02:52:39;96954.34;;;17.20
76901;BMP280;65859;43.020;25.096;2022-12-11T02:55:08;96952.34;;;17.07
76901;BMP280;65859;43.020;25.096;2022-12-11T02:57:52;96963.22;;;16.88
76901;BMP280;65859;43.020;25.096;2022-12-11T03:00:20;96963.31;;;17.13
76901;BMP280;65859;43.020;25.096;2022-12-11T03:02:47;96950.41;;;16.79
76901;BMP280;65859;43.020;25.096;2022-12-11T03:05:13;96961.53;;;16.65
76901;BMP280;65859;43.020;25.096;2022-12-11T03:07:42;96962.22;;;16.49
76901;BMP280;65859;43.020;25.096;2022-12-11T03:10:11;96964.00;;;16.39
76901;BMP280;65859;43.020;25.096;2022-12-11T03:12:42;96970.72;;;16.47
76901;BMP280;65859;43.020;25.096;2022-12-11T03:15:16;96976.97;;;16.41
76901;BMP280;65859;43.020;25.096;2022-12-11T03:20:40;96948.53;;;16.92
76901;BMP280;65859;43.020;25.096;2022-12-11T03:23:19;96953.56;;;17.19
76901;BMP280;65859;43.020;25.096;2022-12-11T03:26:12;96954.47;;;17.29
76901;BMP280;65859;43.020;25.096;2022-12-11T03:29:03;96972.97;;;17.23
76901;BMP280;65859;43.020;25.096;2022-12-11T03:31:44;96965.88;;;17.58
76901;BMP280;65859;43.020;25.096;2022-12-11T03:34:17;96958.06;;;17.22
76901;BMP280;65859;43.020;25.096;2022-12-11T03:36:46;96960.38;;;16.95
76901;BMP280;65859;43.020;25.096;2022-12-11T03:39:21;96965.34;;;16.80
76901;BMP280;65859;43.020;25.096;2022-12-11T03:41:50;96974.03;;;16.52
76901;BMP280;65859;43.020;25.096;2022-12-11T03:44:18;96961.41;;;16.68
76901;BMP280;65859;43.020;25.096;2022-12-11T03:46:46;96932.63;;;16.72
76901;BMP280;65859;43.020;25.096;2022-12-11T03:49:18;96924.16;;;16.74
76901;BMP280;65859;43.020;25.096;2022-12-11T03:51:47;96938.66;;;17.05
76901;BMP280;65859;43.020;25.096;2022-12-11T03:54:17;96917.28;;;17.31
76901;BMP280;65859;43.020;25.096;2022-12-11T03:56:45;96925.22;;;17.34
76901;BMP280;65859;43.020;25.096;2022-12-11T03:59:11;96923.47;;;17.28
76901;BMP280;65859;43.020;25.096;2022-12-11T04:01:38;96952.16;;;16.86
76901;BMP280;65859;43.020;25.096;2022-12-11T04:04:05;96939.75;;;16.63
76901;BMP280;65859;43.020;25.096;2022-12-11T04:06:31;96946.53;;;17.25
76901;BMP280;65859;43.020;25.096;2022-12-11T04:08:57;96948.34;;;17.28
76901;BMP280;65859;43.020;25.096;2022-12-11T04:11:23;96943.75;;;17.42
76901;BMP280;65859;43.020;25.096;2022-12-11T04:14:20;96942.16;;;17.02
76901;BMP280;65859;43.020;25.096;2022-12-11T04:17:05;96959.13;;;16.67
76901;BMP280;65859;43.020;25.096;2022-12-11T04:19:32;96962.69;;;16.47
76901;BMP280;65859;43.020;25.096;2022-12-11T04:22:17;96977.22;;;16.30
76901;BMP280;65859;43.020;25.096;2022-12-11T04:25:05;96982.19;;;16.32
76901;BMP280;65859;43.020;25.096;2022-12-11T04:27:32;96989.03;;;16.33
76901;BMP280;65859;43.020;25.096;2022-12-11T04:30:19;96984.59;;;16.26
76901;BMP280;65859;43.020;25.096;2022-12-11T04:32:46;96987.09;;;16.17
76901;BMP280;65859;43.020;25.096;2022-12-11T04:35:13;96997.44;;;16.15
76901;BMP280;65859;43.020;25.096;2022-12-11T04:37:40;96997.09;;;16.13
76901;BMP280;65859;43.020;25.096;2022-12-11T04:40:10;96988.91;;;16.04
76901;BMP280;65859;43.020;25.096;2022-12-11T04:42:37;97000.25;;;15.92
76901;BMP280;65859;43.020;25.096;2022-12-11T04:45:04;97004.88;;;15.87
76901;BMP280;65859;43.020;25.096;2022-12-11T04:47:30;97016.63;;;15.94
76901;BMP280;65859;43.020;25.096;2022-12-11T04:49:57;97004.59;;;16.02
76901;BMP280;65859;43.020;25.096;2022-12-11T04:52:23;97024.28;;;16.11
76901;BMP280;65859;43.020;25.096;2022-12-11T04:54:49;97028.47;;;16.29
76901;BMP280;65859;43.020;25.096;2022-12-11T04:57:17;97038.00;;;16.13
76901;BMP280;65859;43.020;25.096;2022-12-11T04:59:46;97043.34;;;16.13
76901;BMP280;65859;43.020;25.096;2022-12-11T05:02:13;97045.53;;;16.18
76901;BMP280;65859;43.020;25.096;2022-12-11T05:04:41;97049.91;;;16.45
76901;BMP280;65859;43.020;25.096;2022-12-11T05:07:07;97046.41;;;16.64
76901;BMP280;65859;43.020;25.096;2022-12-11T05:09:37;97047.34;;;16.58
76901;BMP280;65859;43.020;25.096;2022-12-11T05:12:03;97057.53;;;16.63
76901;BMP280;65859;43.020;25.096;2022-12-11T05:14:29;97067.56;;;16.42
76901;BMP280;65859;43.020;25.096;2022-12-11T05:17:00;97075.28;;;16.20
76901;BMP280;65859;43.020;25.096;2022-12-11T05:19:27;97071.44;;;16.02
76901;BMP280;65859;43.020;25.096;2022-12-11T05:21:53;97059.31;;;15.97
76901;BMP280;65859;43.020;25.096;2022-12-11T05:24:20;97058.56;;;16.16
76901;BMP280;65859;43.020;25.096;2022-12-11T05:26:46;97066.88;;;16.22
76901;BMP280;65859;43.020;25.096;2022-12-11T05:29:13;97073.59;;;16.10
76901;BMP280;65859;43.020;25.096;2022-12-11T05:31:40;97070.22;;;16.06
76901;BMP280;65859;43.020;25.096;2022-12-11T05:34:06;97076.97;;;15.95
76901;BMP280;65859;43.020;25.096;2022-12-11T05:36:33;97083.47;;;15.94
76901;BMP280;65859;43.020;25.096;2022-12-11T05:39:00;97081.41;;;16.01
76901;BMP280;65859;43.020;25.096;2022-12-11T05:41:30;97099.94;;;15.92
76901;BMP280;65859;43.020;25.096;2022-12-11T05:43:58;97101.38;;;16.16
76901;BMP280;65859;43.020;25.096;2022-12-11T05:46:27;97106.63;;;16.20
76901;BMP280;65859;43.020;25.096;2022-12-11T05:48:56;97105.97;;;16.16
76901;BMP280;65859;43.020;25.096;2022-12-11T05:51:24;97100.53;;;16.19
76901;BMP280;65859;43.020;25.096;2022-12-11T05:53:51;97101.97;;;16.24
76901;BMP280;65859;43.020;25.096;2022-12-11T05:56:23;97112.06;;;16.16
76901;BMP280;65859;43.020;25.096;2022-12-11T05:58:50;97118.25;;;16.13
76901;BMP280;65859;43.020;25.096;2022-12-11T06:01:39;97130.25;;;16.25
76901;BMP280;65859;43.020;25.096;2022-12-11T06:04:08;97129.34;;;16.12
76901;BMP280;65859;43.020;25.096;2022-12-11T06:06:35;97127.50;;;16.09
76901;BMP280;65859;43.020;25.096;2022-12-11T06:09:02;97138.34;;;16.22
76901;BMP280;65859;43.020;25.096;2022-12-11T06:11:30;97143.81;;;16.34
76901;BMP280;65859;43.020;25.096;2022-12-11T06:13:57;97146.34;;;15.82
76901;BMP280;65859;43.020;25.096;2022-12-11T06:16:24;97154.97;;;15.70
76901;BMP280;65859;43.020;25.096;2022-12-11T06:18:51;97167.00;;;16.01
76901;BMP280;65859;43.020;25.096;2022-12-11T06:21:24;97173.72;;;16.49
76901;BMP280;65859;43.020;25.096;2022-12-11T06:23:52;97170.44;;;16.41
76901;BMP280;65859;43.020;25.096;2022-12-11T06:26:19;97171.00;;;16.33
76901;BMP280;65859;43.020;25.096;2022-12-11T06:28:47;97175.38;;;16.23
76901;BMP280;65859;43.020;25.096;2022-12-11T06:31:13;97172.06;;;16.35
76901;BMP280;65859;43.020;25.096;2022-12-11T06:33:41;97169.91;;;16.30
76901;BMP280;65859;43.020;25.096;2022-12-11T06:36:10;97175.63;;;16.32
76901;BMP280;65859;43.020;25.096;2022-12-11T06:38:37;97173.88;;;16.42
76901;BMP280;65859;43.020;25.096;2022-12-11T06:41:04;97181.72;;;16.33
76901;BMP280;65859;43.020;25.096;2022-12-11T06:43:31;97177.03;;;16.37
76901;BMP280;65859;43.020;25.096;2022-12-11T06:45:58;97171.19;;;16.42
76901;BMP280;65859;43.020;25.096;2022-12-11T06:48:25;97171.66;;;16.57
76901;BMP280;65859;43.020;25.096;2022-12-11T06:50:51;97170.56;;;16.34
76901;BMP280;65859;43.020;25.096;2022-12-11T06:53:18;97169.59;;;16.44
76901;BMP280;65859;43.020;25.096;2022-12-11T06:55:44;97182.41;;;16.37
76901;BMP280;65859;43.020;25.096;2022-12-11T06:58:10;97178.34;;;16.48
76901;BMP280;65859;43.020;25.096;2022-12-11T07:00:37;97186.69;;;16.51
76901;BMP280;65859;43.020;25.096;2022-12-11T07:03:04;97192.59;;;16.42
76901;BMP280;65859;43.020;25.096;2022-12-11T07:05:32;97197.41;;;16.31
76901;BMP280;65859;43.020;25.096;2022-12-11T07:07:58;97201.13;;;16.37
76901;BMP280;65859;43.020;25.096;2022-12-11T07:10:25;97213.41;;;16.14
76901;BMP280;65859;43.020;25.096;2022-12-11T07:12:52;97215.41;;;16.10
76901;BMP280;65859;43.020;25.096;2022-12-11T07:15:19;97207.13;;;16.01
76901;BMP280;65859;43.020;25.096;2022-12-11T07:17:46;97206.56;;;15.90
76901;BMP280;65859;43.020;25.096;2022-12-11T07:20:12;97195.50;;;16.11
76901;BMP280;65859;43.020;25.096;2022-12-11T07:22:38;97206.69;;;16.26
76901;BMP280;65859;43.020;25.096;2022-12-11T07:25:05;97198.19;;;16.11
76901;BMP280;65859;43.020;25.096;2022-12-11T07:27:31;97200.97;;;16.04
76901;BMP280;65859;43.020;25.096;2022-12-11T07:29:58;97207.56;;;16.00
76901;BMP280;65859;43.020;25.096;2022-12-11T07:32:24;97207.59;;;15.96
76901;BMP280;65859;43.020;25.096;2022-12-11T07:34:50;97206.91;;;15.92
76901;BMP280;65859;43.020;25.096;2022-12-11T07:37:18;97207.28;;;16.14
76901;BMP280;65859;43.020;25.096;2022-12-11T07:39:44;97211.59;;;16.08
76901;BMP280;65859;43.020;25.096;2022-12-11T07:42:10;97213.47;;;16.11
76901;BMP280;65859;43.020;25.096;2022-12-11T07:44:37;97214.69;;;16.06
76901;BMP280;65859;43.020;25.096;2022-12-11T07:47:03;97208.50;;;16.09
76901;BMP280;65859;43.020;25.096;2022-12-11T07:49:29;97213.75;;;16.16
76901;BMP280;65859;43.020;25.096;2022-12-11T07:51:56;97203.81;;;16.37
76901;BMP280;65859;43.020;25.096;2022-12-11T07:54:22;97204.84;;;16.79
76901;BMP280;65859;43.020;25.096;2022-12-11T07:56:48;97208.47;;;17.05
76901;BMP280;65859;43.020;25.096;2022-12-11T07:59:15;97217.63;;;17.40
76901;BMP280;65859;43.020;25.096;2022-12-11T08:01:42;97218.66;;;17.91
76901;BMP280;65859;43.020;25.096;2022-12-11T08:04:10;97216.59;;;18.12
76901;BMP280;65859;43.020;25.096;2022-12-11T08:06:38;97228.41;;;18.14
76901;BMP280;65859;43.020;25.096;2022-12-11T08:09:10;97217.56;;;18.60
76901;BMP280;65859;43.020;25.096;2022-12-11T08:11:37;97225.94;;;18.87
76901;BMP280;65859;43.020;25.096;2022-12-11T08:14:04;97228.75;;;18.96
76901;BMP280;65859;43.020;25.096;2022-12-11T08:16:31;97224.19;;;18.55
76901;BMP280;65859;43.020;25.096;2022-12-11T08:18:58;97219.59;;;18.14
76901;BMP280;65859;43.020;25.096;2022-12-11T08:21:26;97203.38;;;18.05
76901;BMP280;65859;43.020;25.096;2022-12-11T08:23:54;97202.09;;;18.09
76901;BMP280;65859;43.020;25.096;2022-12-11T08:26:23;97197.41;;;18.39
76901;BMP280;65859;43.020;25.096;2022-12-11T08:28:50;97199.50;;;18.73
76901;BMP280;65859;43.020;25.096;2022-12-11T08:31:17;97196.41;;;19.00
76901;BMP280;65859;43.020;25.096;2022-12-11T08:33:44;97186.31;;;19.38
76901;BMP280;65859;43.020;25.096;2022-12-11T08:36:13;97190.03;;;19.88
76901;BMP280;65859;43.020;25.096;2022-12-11T08:38:40;97184.38;;;19.73
76901;BMP280;65859;43.020;25.096;2022-12-11T08:41:18;97185.22;;;19.01
76901;BMP280;65859;43.020;25.096;2022-12-11T08:43:45;97189.59;;;18.44
76901;BMP280;65859;43.020;25.096;2022-12-11T08:46:12;97191.34;;;18.38
76901;BMP280;65859;43.020;25.096;2022-12-11T08:48:40;97196.25;;;18.40
76901;BMP280;65859;43.020;25.096;2022-12-11T08:51:10;97201.75;;;18.49
76901;BMP280;65859;43.020;25.096;2022-12-11T08:53:37;97205.66;;;18.99
76901;BMP280;65859;43.020;25.096;2022-12-11T08:56:07;97206.84;;;18.85
76901;BMP280;65859;43.020;25.096;2022-12-11T08:58:34;97203.63;;;18.77
76901;BMP280;65859;43.020;25.096;2022-12-11T09:01:09;97191.97;;;18.80
76901;BMP280;65859;43.020;25.096;2022-12-11T09:03:37;97191.75;;;18.62
76901;BMP280;65859;43.020;25.096;2022-12-11T09:06:06;97192.75;;;18.55
76901;BMP280;65859;43.020;25.096;2022-12-11T09:08:32;97189.28;;;18.80
76901;BMP280;65859;43.020;25.096;2022-12-11T09:11:08;97185.75;;;18.58
76901;BMP280;65859;43.020;25.096;2022-12-11T09:13:36;97192.94;;;18.48
76901;BMP280;65859;43.020;25.096;2022-12-11T09:16:08;97191.91;;;18.71
76901;BMP280;65859;43.020;25.096;2022-12-11T09:18:36;97193.63;;;18.78
76901;BMP280;65859;43.020;25.096;2022-12-11T09:21:05;97192.00;;;18.93
76901;BMP280;65859;43.020;25.096;2022-12-11T09:23:32;97184.97;;;18.96
76901;BMP280;65859;43.020;25.096;2022-12-11T09:25:59;97187.47;;;19.03
76901;BMP280;65859;43.020;25.096;2022-12-11T09:28:25;97196.81;;;19.11
76901;BMP280;65859;43.020;25.096;2022-12-11T09:30:51;97195.09;;;19.04
76901;BMP280;65859;43.020;25.096;2022-12-11T09:33:18;97189.00;;;18.78
76901;BMP280;65859;43.020;25.096;2022-12-11T09:35:44;97186.72;;;18.51
76901;BMP280;65859;43.020;25.096;2022-12-11T09:38:11;97193.50;;;18.56
76901;BMP280;65859;43.020;25.096;2022-12-11T09:40:41;97193.09;;;18.70
76901;BMP280;65859;43.020;25.096;2022-12-11T09:43:37;97196.47;;;18.33
76901;BMP280;65859;43.020;25.096;2022-12-11T09:46:10;97194.69;;;18.13
76901;BMP280;65859;43.020;25.096;2022-12-11T09:48:38;97194.06;;;18.09
76901;BMP280;65859;43.020;25.096;2022-12-11T09:51:28;97189.84;;;18.08
76901;BMP280;65859;43.020;25.096;2022-12-11T09:53:58;97192.84;;;18.10
76901;BMP280;65859;43.020;25.096;2022-12-11T09:56:35;97207.72;;;18.40
76901;BMP280;65859;43.020;25.096;2022-12-11T10:05:03;97205.75;;;17.86
76901;BMP280;65859;43.020;25.096;2022-12-11T10:13:10;97206.22;;;17.68
76901;BMP280;65859;43.020;25.096;2022-12-11T10:15:51;97217.97;;;17.26
76901;BMP280;65859;43.020;25.096;2022-12-11T10:18:22;97214.97;;;17.24
76901;BMP280;65859;43.020;25.096;2022-12-11T10:20:52;97214.25;;;16.87
76901;BMP280;65859;43.020;25.096;2022-12-11T10:23:35;97227.31;;;16.85
76901;BMP280;65859;43.020;25.096;2022-12-11T10:26:11;97241.13;;;16.64
76901;BMP280;65859;43.020;25.096;2022-12-11T10:28:38;97248.91;;;16.58
76901;BMP280;65859;43.020;25.096;2022-12-11T10:34:02;97248.81;;;16.22
76901;BMP280;65859;43.020;25.096;2022-12-11T10:36:34;97251.97;;;15.94
76901;BMP280;65859;43.020;25.096;2022-12-11T10:39:02;97242.78;;;15.95
76901;BMP280;65859;43.020;25.096;2022-12-11T10:44:00;97258.72;;;15.28
76901;BMP280;65859;43.020;25.096;2022-12-11T10:46:38;97269.09;;;15.22
76901;BMP280;65859;43.020;25.096;2022-12-11T10:49:17;97287.66;;;15.02
76901;BMP280;65859;43.020;25.096;2022-12-11T10:51:45;97299.28;;;14.89
76901;BMP280;65859;43.020;25.096;2022-12-11T10:57:05;97303.69;;;14.68
76901;BMP280;65859;43.020;25.096;2022-12-11T10:59:44;97289.16;;;14.73
76901;BMP280;65859;43.020;25.096;2022-12-11T11:04:54;97275.09;;;14.31
76901;BMP280;65859;43.020;25.096;2022-12-11T11:07:29;97296.81;;;14.30
76901;BMP280;65859;43.020;25.096;2022-12-11T11:12:42;97314.75;;;14.26
76901;BMP280;65859;43.020;25.096;2022-12-11T11:15:25;97316.81;;;14.07
76901;BMP280;65859;43.020;25.096;2022-12-11T11:17:54;97321.69;;;14.20
76901;BMP280;65859;43.020;25.096;2022-12-11T11:20:27;97327.38;;;14.22
76901;BMP280;65859;43.020;25.096;2022-12-11T11:22:57;97334.72;;;14.07
76901;BMP280;65859;43.020;25.096;2022-12-11T11:25:30;97322.78;;;13.70
76901;BMP280;65859;43.020;25.096;2022-12-11T11:28:00;97317.94;;;13.54
76901;BMP280;65859;43.020;25.096;2022-12-11T11:30:38;97332.53;;;13.25
76901;BMP280;65859;43.020;25.096;2022-12-11T11:33:16;97335.91;;;13.40
76901;BMP280;65859;43.020;25.096;2022-12-11T11:35:58;97333.31;;;13.92
76901;BMP280;65859;43.020;25.096;2022-12-11T11:38:32;97327.28;;;13.80
76901;BMP280;65859;43.020;25.096;2022-12-11T11:41:11;97331.97;;;13.62
76901;BMP280;65859;43.020;25.096;2022-12-11T11:44:03;97330.22;;;13.97
76901;BMP280;65859;43.020;25.096;2022-12-11T11:46:41;97333.78;;;14.72
76901;BMP280;65859;43.020;25.096;2022-12-11T11:49:14;97341.94;;;15.26
76901;BMP280;65859;43.020;25.096;2022-12-11T11:56:46;97342.94;;;15.67
76901;BMP280;65859;43.020;25.096;2022-12-11T11:59:25;97348.75;;;15.88
76901;BMP280;65859;43.020;25.096;2022-12-11T12:01:56;97347.34;;;15.23
76901;BMP280;65859;43.020;25.096;2022-12-11T12:04:24;97354.69;;;15.15
76901;BMP280;65859;43.020;25.096;2022-12-11T12:07:04;97355.84;;;14.77
76901;BMP280;65859;43.020;25.096;2022-12-11T12:15:14;97368.66;;;15.26
76901;BMP280;65859;43.020;25.096;2022-12-11T12:20:59;97379.88;;;13.73
76901;BMP280;65859;43.020;25.096;2022-12-11T12:26:30;97387.50;;;13.71
76901;BMP280;65859;43.020;25.096;2022-12-11T12:42:47;97402.56;;;13.11
76901;BMP280;65859;43.020;25.096;2022-12-11T12:45:41;97396.50;;;12.96
76901;BMP280;65859;43.020;25.096;2022-12-11T12:48:02;97403.00;;;12.81
76901;BMP280;65859;43.020;25.096;2022-12-11T12:50:37;97394.25;;;12.98
76901;BMP280;65859;43.020;25.096;2022-12-11T12:53:06;97391.56;;;13.09
76901;BMP280;65859;43.020;25.096;2022-12-11T12:55:34;97389.25;;;13.18
76901;BMP280;65859;43.020;25.096;2022-12-11T12:58:03;97394.25;;;12.88
76901;BMP280;65859;43.020;25.096;2022-12-11T13:00:32;97408.72;;;12.69
76901;BMP280;65859;43.020;25.096;2022-12-11T13:03:01;97402.22;;;12.95
76901;BMP280;65859;43.020;25.096;2022-12-11T13:05:32;97418.22;;;12.84
76901;BMP280;65859;43.020;25.096;2022-12-11T13:08:02;97434.91;;;12.56
76901;BMP280;65859;43.020;25.096;2022-12-11T13:10:34;97447.88;;;12.65
76901;BMP280;65859;43.020;25.096;2022-12-11T13:13:02;97452.03;;;12.69
76901;BMP280;65859;43.020;25.096;2022-12-11T13:15:33;97452.41;;;12.75
76901;BMP280;65859;43.020;25.096;2022-12-11T13:18:03;97437.97;;;12.47
76901;BMP280;65859;43.020;25.096;2022-12-11T13:20:32;97434.44;;;12.01
76901;BMP280;65859;43.020;25.096;2022-12-11T13:23:34;97437.94;;;12.30
76901;BMP280;65859;43.020;25.096;2022-12-11T13:26:03;97429.56;;;12.17
76901;BMP280;65859;43.020;25.096;2022-12-11T13:31:29;97415.09;;;12.07
76901;BMP280;65859;43.020;25.096;2022-12-11T13:34:02;97429.09;;;11.94
76901;BMP280;65859;43.020;25.096;2022-12-11T13:36:36;97417.28;;;11.73
76901;BMP280;65859;43.020;25.096;2022-12-11T13:39:16;97443.91;;;11.95
76901;BMP280;65859;43.020;25.096;2022-12-11T13:41:50;97456.91;;;12.10
76901;BMP280;65859;43.020;25.096;2022-12-11T13:44:45;97453.47;;;12.03
76901;BMP280;65859;43.020;25.096;2022-12-11T13:47:16;97460.25;;;11.97
76901;BMP280;65859;43.020;25.096;2022-12-11T13:49:46;97460.19;;;11.79
76901;BMP280;65859;43.020;25.096;2022-12-11T13:52:19;97467.53;;;11.38
76901;BMP280;65859;43.020;25.096;2022-12-11T13:54:51;97460.28;;;11.31
76901;BMP280;65859;43.020;25.096;2022-12-11T13:57:21;97467.16;;;11.35
76901;BMP280;65859;43.020;25.096;2022-12-11T13:59:55;97475.34;;;11.16
76901;BMP280;65859;43.020;25.096;2022-12-11T14:02:33;97475.47;;;11.30
76901;BMP280;65859;43.020;25.096;2022-12-11T14:05:09;97483.50;;;11.41
76901;BMP280;65859;43.020;25.096;2022-12-11T14:07:42;97470.81;;;11.13
76901;BMP280;65859;43.020;25.096;2022-12-11T14:15:30;97477.81;;;11.46
76901;BMP280;65859;43.020;25.096;2022-12-11T14:17:58;97484.19;;;11.31
76901;BMP280;65859;43.020;25.096;2022-12-11T14:20:30;97490.72;;;11.41
76901;BMP280;65859;43.020;25.096;2022-12-11T14:23:15;97489.81;;;11.22
76901;BMP280;65859;43.020;25.096;2022-12-11T14:25:50;97494.66;;;11.09
76901;BMP280;65859;43.020;25.096;2022-12-11T14:28:18;97497.13;;;10.92
76901;BMP280;65859;43.020;25.096;2022-12-11T14:30:48;97501.47;;;11.07
76901;BMP280;65859;43.020;25.096;2022-12-11T14:33:16;97505.69;;;11.15
76901;BMP280;65859;43.020;25.096;2022-12-11T14:35:44;97496.94;;;11.11
76901;BMP280;65859;43.020;25.096;2022-12-11T14:38:34;97517.72;;;11.02
76901;BMP280;65859;43.020;25.096;2022-12-11T14:41:05;97503.88;;;10.78
76901;BMP280;65859;43.020;25.096;2022-12-11T14:43:39;97522.31;;;11.08
76901;BMP280;65859;43.020;25.096;2022-12-11T14:46:17;97538.22;;;11.05
76901;BMP280;65859;43.020;25.096;2022-12-11T14:48:54;97532.81;;;10.98
76901;BMP280;65859;43.020;25.096;2022-12-11T14:51:23;97535.00;;;10.85
76901;BMP280;65859;43.020;25.096;2022-12-11T14:53:51;97537.47;;;11.08
76901;BMP280;65859;43.020;25.096;2022-12-11T14:56:22;97545.97;;;10.84
76901;BMP280;65859;43.020;25.096;2022-12-11T14:58:56;97564.31;;;10.96
76901;BMP280;65859;43.020;25.096;2022-12-11T15:01:29;97564.59;;;10.91
76901;BMP280;65859;43.020;25.096;2022-12-11T15:04:18;97552.88;;;10.58
76901;BMP280;65859;43.020;25.096;2022-12-11T15:06:48;97561.38;;;10.71
76901;BMP280;65859;43.020;25.096;2022-12-11T15:09:25;97572.06;;;10.78
76901;BMP280;65859;43.020;25.096;2022-12-11T15:11:58;97584.06;;;10.68
76901;BMP280;65859;43.020;25.096;2022-12-11T15:14:32;97591.13;;;10.57
76901;BMP280;65859;43.020;25.096;2022-12-11T15:16:59;97588.47;;;10.57
76901;BMP280;65859;43.020;25.096;2022-12-11T15:19:31;97584.06;;;10.68
76901;BMP280;65859;43.020;25.096;2022-12-11T15:22:08;97591.25;;;10.64
76901;BMP280;65859;43.020;25.096;2022-12-11T15:24:39;97588.66;;;10.38
76901;BMP280;65859;43.020;25.096;2022-12-11T15:29:50;97594.56;;;10.27
76901;BMP280;65859;43.020;25.096;2022-12-11T15:32:19;97600.34;;;10.37
76901;BMP280;65859;43.020;25.096;2022-12-11T15:34:48;97617.66;;;10.27
76901;BMP280;65859;43.020;25.096;2022-12-11T15:37:31;97634.66;;;10.22
76901;BMP280;65859;43.020;25.096;2022-12-11T15:40:00;97635.28;;;10.42
76901;BMP280;65859;43.020;25.096;2022-12-11T15:42:35;97631.25;;;10.25
76901;BMP280;65859;43.020;25.096;2022-12-11T15:45:05;97633.16;;;9.98
76901;BMP280;65859;43.020;25.096;2022-12-11T15:47:32;97657.72;;;9.95
76901;BMP280;65859;43.020;25.096;2022-12-11T15:50:28;97649.72;;;10.45
76901;BMP280;65859;43.020;25.096;2022-12-11T15:52:55;97663.47;;;10.54
76901;BMP280;65859;43.020;25.096;2022-12-11T15:55:24;97657.53;;;10.64
76901;BMP280;65859;43.020;25.096;2022-12-11T15:57:57;97662.69;;;10.23